Time;durP1;ratioP1;P1;durP2;ratioP2;P2;SDS_P1;SDS_P2;PMS_P1;PMS_P2;Temp;Humidity;BMP_temperature;BMP_pressure;BME280_temperature;BME280_humidity;BME280_pressure;Samples;Min_cycle;Max_cycle;Signal;HPM_P1;HPM_P2
2023/03/04 00:01:40;;;;;;;;;;;6.20;99.90;;;;;;5056406;28;2126;-64
2023/03/04 00:04:06;;;;;;;;;;;6.20;99.90;;;;;;5054358;28;2388;-63
2023/03/04 00:06:32;;;;;;;;;;;6.20;99.90;;;;;;5053776;28;2068;-63
2023/03/04 00:08:58;;;;;;;;;;;6.20;99.90;;;;;;5055374;28;2377;-63
2023/03/04 00:11:25;;;;;;;;;;;6.20;99.90;;;;;;5056056;28;1958;-63
2023/03/04 00:13:51;;;;;;;;;;;6.20;99.90;;;;;;5053819;28;2232;-60
2023/03/04 00:16:17;;;;;;;;;;;6.20;99.90;;;;;;5056986;28;2278;-63
2023/03/04 00:18:43;;;;;;;;;;;6.20;99.90;;;;;;5055521;28;2182;-63
2023/03/04 00:21:10;;;;;;;;;;;6.20;99.90;;;;;;5056013;28;1896;-63
2023/03/04 00:23:36;;;;;;;;;;;6.20;99.90;;;;;;5052623;28;1834;-63
2023/03/04 00:26:02;;;;;;;;;;;6.20;99.90;;;;;;5052233;28;1919;-62
2023/03/04 00:28:28;;;;;;;;;;;6.20;99.90;;;;;;5052345;28;1985;-64
2023/03/04 00:30:54;;;;;;;;;;;6.20;99.90;;;;;;5052969;28;2034;-63
2023/03/04 00:33:20;;;;;;;;;;;6.10;99.90;;;;;;5055717;28;1991;-64
2023/03/04 00:35:46;;;;;;;;;;;6.20;99.90;;;;;;5055704;28;2040;-63
2023/03/04 00:38:13;;;;;;;;;;;6.20;99.90;;;;;;5049198;28;2411;-63
2023/03/04 00:40:39;;;;;;;;;;;6.20;99.90;;;;;;5055199;28;1963;-63
2023/03/04 00:43:05;;;;;;;;;;;6.20;99.90;;;;;;5055851;28;2309;-63
2023/03/04 00:45:31;;;;;;;;;;;6.20;99.90;;;;;;5054989;28;2045;-63
2023/03/04 00:47:57;;;;;;;;;;;6.20;99.90;;;;;;5054281;28;2119;-65
2023/03/04 00:50:23;;;;;;;;;;;6.20;99.90;;;;;;5053853;28;2021;-63
2023/03/04 00:52:49;;;;;;;;;;;6.20;99.90;;;;;;5052149;28;2069;-63
2023/03/04 00:55:16;;;;;;;;;;;6.20;99.90;;;;;;5052007;28;2092;-63
2023/03/04 00:57:42;;;;;;;;;;;6.20;99.90;;;;;;5048434;28;2019;-64
2023/03/04 01:00:08;;;;;;;;;;;6.20;99.90;;;;;;5052396;28;2036;-63
2023/03/04 01:02:34;;;;;;;;;;;6.20;99.90;;;;;;5049833;28;2183;-64
2023/03/04 01:05:00;;;;;;;;;;;6.20;99.90;;;;;;5048473;28;2085;-64
2023/03/04 01:07:27;;;;;;;;;;;6.20;99.90;;;;;;5047131;28;2019;-65
2023/03/04 01:09:53;;;;;;;;;;;6.10;99.90;;;;;;5049540;28;1967;-64
2023/03/04 01:12:19;;;;;;;;;;;6.10;99.90;;;;;;5055040;28;1997;-64
2023/03/04 01:14:45;;;;;;;;;;;6.10;99.90;;;;;;5049158;28;2025;-63
2023/03/04 01:17:11;;;;;;;;;;;6.10;99.90;;;;;;5055003;28;2342;-63
2023/03/04 01:19:37;;;;;;;;;;;6.00;99.90;;;;;;5054846;28;2055;-64
2023/03/04 01:22:04;;;;;;;;;;;6.10;99.90;;;;;;5053170;28;2146;-64
2023/03/04 01:24:30;;;;;;;;;;;6.10;99.90;;;;;;5054568;28;2075;-63
2023/03/04 01:26:56;;;;;;;;;;;6.00;99.90;;;;;;5051321;28;2295;-61
2023/03/04 01:29:22;;;;;;;;;;;6.10;99.90;;;;;;5050989;28;2271;-63
2023/03/04 01:31:48;;;;;;;;;;;6.10;99.90;;;;;;5053954;28;2029;-63
2023/03/04 01:34:14;;;;;;;;;;;6.10;99.90;;;;;;5054882;28;2139;-63
2023/03/04 01:36:40;;;;;;;;;;;6.10;99.90;;;;;;5054639;28;2310;-63
2023/03/04 01:39:06;;;;;;;;;;;6.10;99.90;;;;;;5053608;28;2081;-64
2023/03/04 01:41:33;;;;;;;;;;;6.10;99.90;;;;;;5054247;28;2153;-62
2023/03/04 01:44:01;;;;;;;;;;;6.10;99.90;;;;;;5051856;28;2267;-64
2023/03/04 01:46:28;;;;;;;;;;;6.10;99.90;;;;;;5054373;28;1944;-61
2023/03/04 01:48:54;;;;;;;;;;;6.10;99.90;;;;;;5053479;28;2196;-63
2023/03/04 01:51:20;;;;;;;;;;;6.10;99.90;;;;;;5054627;28;1989;-63
2023/03/04 01:53:49;;;;;;;;;;;6.10;99.90;;;;;;5054944;28;2202;-62
2023/03/04 01:56:20;;;;;;;;;;;6.10;99.90;;;;;;5051611;28;2234;-63
2023/03/04 01:59:05;;;;;;;;;;;6.10;99.90;;;;;;5053735;28;2209;-63
2023/03/04 02:01:32;;;;;;;;;;;6.10;99.90;;;;;;5053328;28;1909;-64
2023/03/04 02:03:58;;;;;;;;;;;6.10;99.90;;;;;;5049296;28;2198;-64
2023/03/04 02:06:24;;;;;;;;;;;6.10;99.90;;;;;;5053801;28;1914;-63
2023/03/04 02:08:50;;;;;;;;;;;6.10;99.90;;;;;;5053279;28;2266;-63
2023/03/04 02:11:17;;;;;;;;;;;6.00;99.90;;;;;;5052172;28;2325;-60
2023/03/04 02:13:43;;;;;;;;;;;6.10;99.90;;;;;;5050576;28;2260;-63
2023/03/04 02:16:09;;;;;;;;;;;6.00;99.90;;;;;;5052669;28;2269;-63
2023/03/04 02:18:35;;;;;;;;;;;6.00;99.90;;;;;;5053155;28;1915;-64
2023/03/04 02:21:13;;;;;;;;;;;6.00;99.90;;;;;;5053711;28;1924;-63
2023/03/04 02:23:49;;;;;;;;;;;6.00;99.90;;;;;;5054057;28;2022;-63
2023/03/04 02:26:20;;;;;;;;;;;6.00;99.90;;;;;;5053779;28;2295;-63
2023/03/04 02:28:50;;;;;;;;;;;6.00;99.90;;;;;;5052677;28;1907;-63
2023/03/04 02:31:21;;;;;;;;;;;6.00;99.90;;;;;;5053990;28;2272;-63
2023/03/04 02:33:47;;;;;;;;;;;6.00;99.90;;;;;;5052793;28;1956;-63
2023/03/04 02:36:13;;;;;;;;;;;6.00;99.90;;;;;;5053608;28;2208;-64
2023/03/04 02:38:40;;;;;;;;;;;5.90;99.90;;;;;;5045687;28;2027;-64
2023/03/04 02:41:08;;;;;;;;;;;5.90;99.90;;;;;;5052010;28;2143;-63
2023/03/04 02:43:34;;;;;;;;;;;5.90;99.90;;;;;;5049879;28;2063;-63
2023/03/04 02:46:00;;;;;;;;;;;5.90;99.90;;;;;;5053770;28;2105;-63
2023/03/04 02:48:27;;;;;;;;;;;5.90;99.90;;;;;;5052999;28;2162;-64
2023/03/04 02:50:53;;;;;;;;;;;5.90;99.90;;;;;;5053571;28;2082;-63
2023/03/04 02:53:20;;;;;;;;;;;5.90;99.90;;;;;;5058963;28;1963;-63
2023/03/04 02:55:47;;;;;;;;;;;5.90;99.90;;;;;;5054036;28;2343;-64
2023/03/04 02:58:13;;;;;;;;;;;5.90;99.90;;;;;;5052156;28;2345;-63
2023/03/04 03:00:39;;;;;;;;;;;6.00;99.90;;;;;;5053870;28;2379;-63
2023/03/04 03:03:06;;;;;;;;;;;6.00;99.90;;;;;;5051459;28;2406;-63
2023/03/04 03:05:34;;;;;;;;;;;6.00;99.90;;;;;;5052465;28;2263;-64
2023/03/04 03:08:00;;;;;;;;;;;5.90;99.90;;;;;;5050209;28;2343;-63
2023/03/04 03:10:26;;;;;;;;;;;6.00;99.90;;;;;;5052940;28;2150;-63
2023/03/04 03:12:53;;;;;;;;;;;6.00;99.90;;;;;;5050638;28;2084;-63
2023/03/04 03:15:19;;;;;;;;;;;5.90;99.90;;;;;;5054237;28;2028;-63
2023/03/04 03:17:45;;;;;;;;;;;5.90;99.90;;;;;;5057307;28;2037;-64
2023/03/04 03:20:12;;;;;;;;;;;5.90;99.90;;;;;;5052574;28;2315;-63
2023/03/04 03:22:38;;;;;;;;;;;5.90;99.90;;;;;;5051246;28;2019;-63
2023/03/04 03:25:05;;;;;;;;;;;5.90;99.90;;;;;;5057213;28;2353;-63
2023/03/04 03:27:31;;;;;;;;;;;5.90;99.90;;;;;;5052295;28;2017;-64
2023/03/04 03:29:58;;;;;;;;;;;5.80;99.90;;;;;;5052794;28;2329;-64
2023/03/04 03:32:24;;;;;;;;;;;5.80;99.90;;;;;;5057094;28;2102;-64
2023/03/04 03:34:50;;;;;;;;;;;5.80;99.90;;;;;;5052316;28;2109;-63
2023/03/04 03:37:16;;;;;;;;;;;5.80;99.90;;;;;;5054236;28;2449;-63
2023/03/04 03:39:43;;;;;;;;;;;5.80;99.90;;;;;;5055837;28;2127;-63
2023/03/04 03:42:09;;;;;;;;;;;5.80;99.90;;;;;;5056778;28;2090;-64
2023/03/04 03:44:35;;;;;;;;;;;5.80;99.90;;;;;;5052864;28;1990;-63
2023/03/04 03:47:01;;;;;;;;;;;5.80;99.90;;;;;;5058402;28;2208;-64
2023/03/04 03:49:27;;;;;;;;;;;5.80;99.90;;;;;;5056068;28;2099;-63
2023/03/04 03:51:54;;;;;;;;;;;5.80;99.90;;;;;;5056777;28;1945;-63
2023/03/04 03:54:20;;;;;;;;;;;5.80;99.90;;;;;;5056710;28;2089;-64
2023/03/04 03:56:46;;;;;;;;;;;5.80;99.90;;;;;;5055390;28;1922;-63
2023/03/04 03:59:12;;;;;;;;;;;5.70;99.90;;;;;;5055736;28;2201;-63
2023/03/04 04:01:38;;;;;;;;;;;5.70;99.90;;;;;;5056353;28;2044;-63
2023/03/04 04:04:04;;;;;;;;;;;5.70;99.90;;;;;;5054374;28;2215;-63
2023/03/04 04:06:31;;;;;;;;;;;5.60;99.90;;;;;;5055678;28;1955;-62
2023/03/04 04:08:57;;;;;;;;;;;5.60;99.90;;;;;;5060842;28;1989;-63
2023/03/04 04:11:23;;;;;;;;;;;5.60;99.90;;;;;;5049540;28;1968;-64
2023/03/04 04:13:49;;;;;;;;;;;5.70;99.90;;;;;;5050283;28;2000;-64
2023/03/04 04:16:15;;;;;;;;;;;5.60;99.90;;;;;;5055087;28;2204;-64
2023/03/04 04:18:41;;;;;;;;;;;5.70;99.90;;;;;;5055423;28;2034;-63
2023/03/04 04:21:08;;;;;;;;;;;5.60;99.90;;;;;;5047657;28;1963;-63
2023/03/04 04:23:34;;;;;;;;;;;5.70;99.90;;;;;;5053992;28;1997;-63
2023/03/04 04:26:00;;;;;;;;;;;5.60;99.90;;;;;;5055887;28;1795;-63
2023/03/04 04:28:26;;;;;;;;;;;5.70;99.90;;;;;;5078231;28;2192;-62
2023/03/04 04:30:52;;;;;;;;;;;5.70;99.90;;;;;;5047383;28;2020;-62
2023/03/04 04:33:18;;;;;;;;;;;5.70;99.90;;;;;;5045611;28;1565;-63
2023/03/04 04:35:45;;;;;;;;;;;5.70;99.90;;;;;;5055673;28;1737;-62
2023/03/04 04:38:11;;;;;;;;;;;5.60;99.90;;;;;;5046467;28;2035;-63
2023/03/04 04:40:37;;;;;;;;;;;5.70;99.90;;;;;;5056321;28;2002;-62
2023/03/04 04:43:03;;;;;;;;;;;5.70;99.90;;;;;;5046860;28;2076;-63
2023/03/04 04:45:29;;;;;;;;;;;5.70;99.90;;;;;;5055251;28;2003;-63
2023/03/04 04:47:56;;;;;;;;;;;5.70;99.90;;;;;;5048222;28;2062;-62
2023/03/04 04:50:22;;;;;;;;;;;5.70;99.90;;;;;;5048726;28;2063;-62
2023/03/04 04:52:49;;;;;;;;;;;5.70;99.90;;;;;;5048541;28;2064;-63
2023/03/04 04:55:15;;;;;;;;;;;5.60;99.90;;;;;;5055055;28;1993;-63
2023/03/04 04:57:41;;;;;;;;;;;5.70;99.90;;;;;;5053855;28;2044;-63
2023/03/04 05:00:08;;;;;;;;;;;5.60;99.90;;;;;;5054500;28;2055;-63
2023/03/04 05:02:36;;;;;;;;;;;5.60;99.90;;;;;;5050912;28;2101;-63
2023/03/04 05:05:03;;;;;;;;;;;5.60;99.90;;;;;;5048959;28;2085;-65
2023/03/04 05:07:29;;;;;;;;;;;5.60;99.90;;;;;;5050362;28;2028;-63
2023/03/04 05:09:55;;;;;;;;;;;5.60;99.90;;;;;;5048872;28;2044;-62
2023/03/04 05:12:21;;;;;;;;;;;5.60;99.90;;;;;;5055255;28;2028;-63
2023/03/04 05:14:47;;;;;;;;;;;5.70;99.90;;;;;;5049562;28;2075;-63
2023/03/04 05:17:14;;;;;;;;;;;5.60;99.90;;;;;;5055049;28;2429;-63
2023/03/04 05:19:40;;;;;;;;;;;5.70;99.90;;;;;;5053847;28;2095;-62
2023/03/04 05:22:06;;;;;;;;;;;5.70;99.90;;;;;;5050859;28;2338;-63
2023/03/04 05:24:33;;;;;;;;;;;5.60;99.90;;;;;;5053985;28;1972;-63
2023/03/04 05:27:00;;;;;;;;;;;5.60;99.90;;;;;;5058211;28;2521;-61
2023/03/04 05:29:26;;;;;;;;;;;5.60;99.90;;;;;;5054399;28;2104;-63
2023/03/04 05:31:52;;;;;;;;;;;5.60;99.90;;;;;;5054795;28;2370;-62
2023/03/04 05:34:19;;;;;;;;;;;5.50;99.90;;;;;;5040793;28;2207;-63
2023/03/04 05:36:45;;;;;;;;;;;5.50;99.90;;;;;;5054872;28;2280;-63
2023/03/04 05:39:11;;;;;;;;;;;5.60;99.90;;;;;;5052515;28;2273;-63
2023/03/04 05:41:37;;;;;;;;;;;5.60;99.90;;;;;;5054640;28;2262;-63
2023/03/04 05:44:03;;;;;;;;;;;5.60;99.90;;;;;;5049633;28;2308;-63
2023/03/04 05:46:29;;;;;;;;;;;5.60;99.90;;;;;;5054379;28;1974;-62
2023/03/04 05:48:56;;;;;;;;;;;5.50;99.90;;;;;;5047781;28;2318;-61
2023/03/04 05:51:22;;;;;;;;;;;5.50;99.90;;;;;;5048704;28;1988;-63
2023/03/04 05:53:48;;;;;;;;;;;5.40;99.90;;;;;;5054151;28;2198;-63
2023/03/04 05:56:15;;;;;;;;;;;5.40;99.90;;;;;;5054231;28;2272;-63
2023/03/04 05:58:42;;;;;;;;;;;5.40;99.90;;;;;;5045162;28;2369;-63
2023/03/04 06:01:09;;;;;;;;;;;5.50;99.90;;;;;;5048775;28;2190;-63
2023/03/04 06:03:35;;;;;;;;;;;5.40;99.90;;;;;;5041475;28;1999;-63
2023/03/04 06:06:01;;;;;;;;;;;5.40;99.90;;;;;;5047949;28;1948;-63
2023/03/04 06:08:27;;;;;;;;;;;5.50;99.90;;;;;;5043811;28;2135;-63
2023/03/04 06:10:55;;;;;;;;;;;5.50;99.90;;;;;;5039590;28;1973;-63
2023/03/04 06:13:21;;;;;;;;;;;5.50;99.90;;;;;;5046062;28;1906;-61
2023/03/04 06:15:53;;;;;;;;;;;5.50;99.90;;;;;;5036377;28;2724;-65
2023/03/04 06:18:19;;;;;;;;;;;5.50;99.90;;;;;;5038502;28;1951;-63
2023/03/04 06:20:45;;;;;;;;;;;5.50;99.90;;;;;;5044123;28;1974;-63
2023/03/04 06:23:11;;;;;;;;;;;5.50;99.90;;;;;;5053220;28;2245;-63
2023/03/04 06:25:37;;;;;;;;;;;5.50;99.90;;;;;;5053287;28;2067;-63
2023/03/04 06:28:03;;;;;;;;;;;5.50;99.90;;;;;;5050878;28;2059;-64
2023/03/04 06:30:30;;;;;;;;;;;5.30;99.90;;;;;;5052994;28;2185;-64
2023/03/04 06:32:56;;;;;;;;;;;5.30;99.90;;;;;;5053096;28;1998;-64
2023/03/04 06:35:22;;;;;;;;;;;5.40;99.90;;;;;;5053870;28;2003;-63
2023/03/04 06:37:49;;;;;;;;;;;5.30;99.90;;;;;;5054145;28;2096;-63
2023/03/04 06:40:15;;;;;;;;;;;5.40;99.90;;;;;;5051154;28;2434;-63
2023/03/04 06:42:42;;;;;;;;;;;5.30;99.90;;;;;;5058104;28;2031;-62
2023/03/04 06:45:08;;;;;;;;;;;5.40;99.90;;;;;;5053601;28;2094;-63
2023/03/04 06:47:34;;;;;;;;;;;5.40;99.90;;;;;;5053695;28;2020;-63
2023/03/04 06:50:02;;;;;;;;;;;5.40;99.90;;;;;;5053234;28;2364;-64
2023/03/04 06:52:28;;;;;;;;;;;5.30;99.90;;;;;;5057798;28;2075;-64
2023/03/04 06:54:54;;;;;;;;;;;5.40;99.90;;;;;;5052797;28;2357;-63
2023/03/04 06:57:21;;;;;;;;;;;5.40;99.90;;;;;;5057632;28;2081;-62
2023/03/04 06:59:47;;;;;;;;;;;5.30;99.90;;;;;;5055695;28;2059;-63
2023/03/04 07:02:13;;;;;;;;;;;5.40;99.90;;;;;;5053322;28;2367;-63
2023/03/04 07:04:39;;;;;;;;;;;5.40;99.90;;;;;;5055633;28;2198;-63
2023/03/04 07:07:05;;;;;;;;;;;5.50;99.90;;;;;;5057744;28;2528;-63
2023/03/04 07:09:31;;;;;;;;;;;5.50;99.90;;;;;;5056484;28;2068;-63
2023/03/04 07:11:57;;;;;;;;;;;5.50;99.90;;;;;;5057256;28;2409;-63
2023/03/04 07:14:24;;;;;;;;;;;5.60;99.90;;;;;;5051945;28;2129;-63
2023/03/04 07:16:50;;;;;;;;;;;5.50;99.90;;;;;;5057364;28;2010;-63
2023/03/04 07:19:16;;;;;;;;;;;5.50;99.90;;;;;;5056749;28;2173;-63
2023/03/04 07:21:43;;;;;;;;;;;5.50;99.90;;;;;;5057406;28;2153;-62
2023/03/04 07:24:09;;;;;;;;;;;5.50;99.90;;;;;;5057569;28;2085;-63
2023/03/04 07:26:36;;;;;;;;;;;5.60;99.90;;;;;;5057027;28;2048;-63
2023/03/04 07:29:03;;;;;;;;;;;5.60;99.90;;;;;;5057839;28;2103;-64
2023/03/04 07:31:30;;;;;;;;;;;5.60;99.90;;;;;;5056775;28;2020;-63
2023/03/04 07:33:58;;;;;;;;;;;5.70;99.90;;;;;;5053867;28;2386;-64
2023/03/04 07:36:24;;;;;;;;;;;5.60;99.90;;;;;;5057133;28;2006;-64
2023/03/04 07:38:51;;;;;;;;;;;5.60;99.90;;;;;;5055898;28;1998;-64
2023/03/04 07:41:17;;;;;;;;;;;5.60;99.90;;;;;;5056885;28;2194;-64
2023/03/04 07:43:43;;;;;;;;;;;5.60;99.90;;;;;;5047481;28;2059;-64
2023/03/04 07:46:09;;;;;;;;;;;5.70;99.90;;;;;;5047184;28;2097;-64
2023/03/04 07:48:36;;;;;;;;;;;5.90;99.90;;;;;;5045849;28;2747;-64
2023/03/04 07:51:06;;;;;;;;;;;5.80;99.90;;;;;;5053279;28;2190;-63
2023/03/04 07:53:33;;;;;;;;;;;5.80;99.90;;;;;;5056293;28;2044;-63
2023/03/04 07:55:59;;;;;;;;;;;5.70;99.90;;;;;;5056435;28;2273;-65
2023/03/04 07:58:26;;;;;;;;;;;5.90;99.90;;;;;;5054907;28;2076;-63
2023/03/04 08:00:52;;;;;;;;;;;5.70;99.90;;;;;;5056041;28;2118;-64
2023/03/04 08:03:18;;;;;;;;;;;5.70;99.90;;;;;;5049008;28;2044;-64
2023/03/04 08:05:44;;;;;;;;;;;5.90;99.90;;;;;;5049342;28;2111;-61
2023/03/04 08:08:10;;;;;;;;;;;5.90;99.90;;;;;;5049761;28;1695;-62
2023/03/04 08:10:38;;;;;;;;;;;5.90;99.90;;;;;;5050737;28;1993;-60
2023/03/04 08:13:05;;;;;;;;;;;6.10;99.90;;;;;;5054423;28;1618;-62
2023/03/04 08:15:33;;;;;;;;;;;6.10;99.90;;;;;;5056075;28;2148;-61
2023/03/04 08:18:00;;;;;;;;;;;6.10;99.90;;;;;;5057008;28;1038;-60
2023/03/04 08:20:26;;;;;;;;;;;6.10;99.90;;;;;;5054802;28;1514;-64
2023/03/04 08:22:52;;;;;;;;;;;6.10;99.90;;;;;;5054931;28;2034;-62
2023/03/04 08:25:19;;;;;;;;;;;6.10;99.90;;;;;;5047882;28;2414;-61
2023/03/04 08:27:45;;;;;;;;;;;6.10;99.90;;;;;;5047819;28;2153;-62
2023/03/04 08:30:11;;;;;;;;;;;6.10;99.90;;;;;;5052213;28;1910;-62
2023/03/04 08:32:37;;;;;;;;;;;6.10;99.90;;;;;;5068085;28;1802;-63
2023/03/04 08:35:04;;;;;;;;;;;6.30;99.90;;;;;;5047686;28;1908;-63
2023/03/04 08:37:30;;;;;;;;;;;6.30;99.90;;;;;;5053432;28;1754;-62
2023/03/04 08:39:56;;;;;;;;;;;6.20;99.90;;;;;;5048115;28;2062;-63
2023/03/04 08:42:23;;;;;;;;;;;6.30;99.90;;;;;;5044684;28;2074;-63
2023/03/04 08:44:49;;;;;;;;;;;6.20;99.90;;;;;;5054050;28;1772;-61
2023/03/04 08:47:15;;;;;;;;;;;6.20;99.90;;;;;;5051685;28;1833;-62
2023/03/04 08:49:41;;;;;;;;;;;6.40;99.90;;;;;;5051796;28;1811;-62
2023/03/04 08:52:07;;;;;;;;;;;6.40;99.90;;;;;;5048517;28;2005;-62
2023/03/04 08:54:34;;;;;;;;;;;6.20;99.90;;;;;;5050028;28;1789;-62
2023/03/04 08:57:00;;;;;;;;;;;6.40;99.90;;;;;;5051508;28;2098;-61
2023/03/04 08:59:26;;;;;;;;;;;6.20;99.90;;;;;;5053038;28;2090;-61
2023/03/04 09:01:52;;;;;;;;;;;6.30;99.90;;;;;;5052534;28;1916;-62
2023/03/04 09:04:18;;;;;;;;;;;6.40;99.90;;;;;;5052256;28;2069;-63
2023/03/04 09:06:45;;;;;;;;;;;6.50;99.90;;;;;;5053464;28;1653;-62
2023/03/04 09:09:11;;;;;;;;;;;6.50;99.90;;;;;;5053008;28;2012;-63
2023/03/04 09:11:37;;;;;;;;;;;6.60;99.90;;;;;;5053153;28;1977;-61
2023/03/04 09:14:03;;;;;;;;;;;6.80;99.90;;;;;;5052529;28;1688;-63
2023/03/04 09:16:29;;;;;;;;;;;6.80;99.90;;;;;;5053328;28;2193;-62
2023/03/04 09:18:55;;;;;;;;;;;7.00;99.90;;;;;;5050251;28;1373;-62
2023/03/04 09:21:21;;;;;;;;;;;7.00;99.90;;;;;;5045541;28;2097;-61
2023/03/04 09:23:48;;;;;;;;;;;7.20;99.90;;;;;;5054904;28;1120;-61
2023/03/04 09:26:24;;;;;;;;;;;7.30;99.90;;;;;;5052216;28;1430;-61
2023/03/04 09:28:51;;;;;;;;;;;7.30;99.90;;;;;;5053313;28;1126;-61
2023/03/04 09:31:17;;;;;;;;;;;7.40;99.90;;;;;;5054621;28;1969;-60
2023/03/04 09:33:43;;;;;;;;;;;7.30;99.90;;;;;;5055184;28;1098;-61
2023/03/04 09:36:10;;;;;;;;;;;7.30;99.90;;;;;;5055282;28;1481;-61
2023/03/04 09:38:37;;;;;;;;;;;7.40;99.90;;;;;;5053062;28;1098;-61
2023/03/04 09:41:06;;;;;;;;;;;7.30;99.90;;;;;;5054950;28;1224;-61
2023/03/04 09:43:32;;;;;;;;;;;7.20;99.90;;;;;;5054331;28;1157;-60
2023/03/04 09:46:01;;;;;;;;;;;7.20;99.90;;;;;;5055585;28;1172;-61
2023/03/04 09:48:28;;;;;;;;;;;7.20;99.90;;;;;;5052846;28;1422;-61
2023/03/04 09:51:02;;;;;;;;;;;7.20;99.90;;;;;;5046720;28;1910;-61
2023/03/04 09:53:33;;;;;;;;;;;7.20;99.90;;;;;;5055021;28;1240;-62
2023/03/04 09:56:01;;;;;;;;;;;7.20;99.90;;;;;;5050258;28;1347;-61
2023/03/04 09:58:27;;;;;;;;;;;7.30;99.90;;;;;;5052608;28;1275;-61
2023/03/04 10:01:02;;;;;;;;;;;7.30;99.90;;;;;;5055341;28;1115;-61
2023/03/04 10:03:42;;;;;;;;;;;7.50;99.90;;;;;;5052823;28;1346;-60
2023/03/04 10:06:10;;;;;;;;;;;7.50;99.90;;;;;;5054573;28;1472;-60
2023/03/04 10:08:39;;;;;;;;;;;7.50;99.90;;;;;;5051405;28;1338;-61
2023/03/04 10:11:09;;;;;;;;;;;7.50;99.90;;;;;;5052578;28;1971;-61
2023/03/04 10:13:42;;;;;;;;;;;7.40;99.90;;;;;;5050931;28;1159;-60
2023/03/04 10:16:11;;;;;;;;;;;7.50;99.90;;;;;;5053910;28;1064;-61
2023/03/04 10:18:40;;;;;;;;;;;7.50;99.90;;;;;;5052791;28;1079;-60
2023/03/04 10:21:13;;;;;;;;;;;7.60;99.90;;;;;;5051273;28;1466;-59
2023/03/04 10:23:40;;;;;;;;;;;7.60;99.90;;;;;;5053332;28;1303;-61
2023/03/04 10:26:12;;;;;;;;;;;7.80;99.90;;;;;;5052072;28;1153;-60
2023/03/04 10:28:38;;;;;;;;;;;7.80;99.90;;;;;;5043061;28;1225;-61
2023/03/04 10:31:11;;;;;;;;;;;7.80;99.90;;;;;;5045761;28;1906;-61
2023/03/04 10:33:38;;;;;;;;;;;7.80;99.90;;;;;;5053840;28;1117;-61
2023/03/04 10:36:04;;;;;;;;;;;7.90;99.90;;;;;;5054126;28;1240;-61
2023/03/04 10:38:32;;;;;;;;;;;7.90;99.90;;;;;;5053950;28;1236;-61
2023/03/04 10:40:59;;;;;;;;;;;7.90;99.90;;;;;;5050633;28;1174;-61
2023/03/04 10:43:26;;;;;;;;;;;7.80;99.90;;;;;;5050278;28;1387;-60
2023/03/04 10:46:00;;;;;;;;;;;7.80;99.90;;;;;;5049848;28;1664;-61
2023/03/04 10:48:27;;;;;;;;;;;7.70;99.90;;;;;;5045858;28;2046;-61
2023/03/04 10:51:07;;;;;;;;;;;7.70;99.90;;;;;;5049948;28;1906;-61
2023/03/04 10:53:38;;;;;;;;;;;7.70;99.90;;;;;;5049190;28;1683;-61
2023/03/04 10:56:24;;;;;;;;;;;7.70;99.90;;;;;;5054166;28;2012;-60
2023/03/04 10:58:50;;;;;;;;;;;7.70;99.90;;;;;;5051784;28;1882;-60
2023/03/04 11:01:23;;;;;;;;;;;7.70;99.90;;;;;;5054123;28;1235;-61
2023/03/04 11:03:50;;;;;;;;;;;7.80;99.90;;;;;;5062956;28;1160;-61
2023/03/04 11:06:21;;;;;;;;;;;7.80;99.90;;;;;;5053528;28;1398;-59
2023/03/04 11:08:54;;;;;;;;;;;7.80;99.90;;;;;;5044736;28;1295;-61
2023/03/04 11:11:22;;;;;;;;;;;7.70;99.90;;;;;;5050109;28;1905;-62
2023/03/04 11:13:53;;;;;;;;;;;7.70;99.90;;;;;;5053289;28;1985;-61
2023/03/04 11:16:28;;;;;;;;;;;7.70;99.90;;;;;;5054344;28;1078;-60
2023/03/04 11:18:57;;;;;;;;;;;7.80;99.90;;;;;;5053992;28;1370;-60
2023/03/04 11:21:25;;;;;;;;;;;7.90;99.90;;;;;;5053791;28;1414;-62
2023/03/04 11:23:58;;;;;;;;;;;8.00;99.90;;;;;;5052452;28;2120;-61
2023/03/04 11:26:30;;;;;;;;;;;8.10;99.90;;;;;;5053402;28;1227;-61
2023/03/04 11:29:03;;;;;;;;;;;8.10;99.90;;;;;;5050916;28;1091;-61
2023/03/04 11:31:39;;;;;;;;;;;8.10;99.90;;;;;;5048073;28;1902;-61
2023/03/04 11:34:18;;;;;;;;;;;8.10;99.90;;;;;;5053983;28;1387;-61
2023/03/04 11:37:06;;;;;;;;;;;8.00;99.90;;;;;;5052037;28;1114;-62
2023/03/04 11:39:32;;;;;;;;;;;7.80;99.90;;;;;;5053555;28;1683;-61
2023/03/04 11:42:07;;;;;;;;;;;7.80;99.90;;;;;;5056382;28;1043;-61
2023/03/04 11:44:33;;;;;;;;;;;7.80;99.90;;;;;;5057977;28;1528;-62
2023/03/04 11:47:02;;;;;;;;;;;7.80;99.90;;;;;;5057844;28;1129;-60
2023/03/04 11:49:47;;;;;;;;;;;7.80;99.90;;;;;;5056970;28;1100;-60
2023/03/04 11:52:16;;;;;;;;;;;7.80;99.90;;;;;;5055366;28;1898;-60
2023/03/04 11:55:00;;;;;;;;;;;7.90;99.90;;;;;;5057901;28;1216;-60
2023/03/04 11:57:45;;;;;;;;;;;7.80;99.90;;;;;;5057946;28;1241;-60
2023/03/04 12:00:30;;;;;;;;;;;7.90;99.90;;;;;;5052621;28;988;-59
2023/03/04 12:03:23;;;;;;;;;;;7.80;99.90;;;;;;5057530;28;1109;-60
2023/03/04 12:05:55;;;;;;;;;;;7.60;99.90;;;;;;5054840;28;1225;-60
2023/03/04 12:08:32;;;;;;;;;;;7.70;99.90;;;;;;5058524;28;1113;-61
2023/03/04 12:11:16;;;;;;;;;;;7.60;99.90;;;;;;5058435;28;1967;-60
2023/03/04 12:14:08;;;;;;;;;;;7.70;99.90;;;;;;5058559;28;1131;-59
2023/03/04 12:16:37;;;;;;;;;;;7.70;99.90;;;;;;5058376;28;1153;-60
2023/03/04 12:19:15;;;;;;;;;;;7.80;99.90;;;;;;5058414;28;1304;-60
2023/03/04 12:21:41;;;;;;;;;;;7.90;99.90;;;;;;5046501;28;1158;-60
2023/03/04 12:24:13;;;;;;;;;;;7.90;99.90;;;;;;5053945;28;1058;-59
2023/03/04 12:27:00;;;;;;;;;;;7.90;99.90;;;;;;5066277;28;1126;-60
2023/03/04 12:29:26;;;;;;;;;;;8.00;99.90;;;;;;5058029;28;966;-60
2023/03/04 12:32:02;;;;;;;;;;;8.20;99.90;;;;;;5058075;28;1906;-60
2023/03/04 12:34:28;;;;;;;;;;;8.20;99.90;;;;;;5058054;28;1098;-61
2023/03/04 12:37:13;;;;;;;;;;;8.30;99.90;;;;;;5058027;28;1196;-62
2023/03/04 12:39:58;;;;;;;;;;;8.30;99.90;;;;;;5052695;28;1142;-60
2023/03/04 12:42:34;;;;;;;;;;;8.40;99.90;;;;;;5057108;28;1075;-60
2023/03/04 12:45:03;;;;;;;;;;;8.40;99.90;;;;;;5057893;28;1488;-61
2023/03/04 12:47:42;;;;;;;;;;;8.50;99.90;;;;;;5056404;28;1087;-61
2023/03/04 12:50:23;;;;;;;;;;;8.60;99.90;;;;;;5045859;28;1114;-61
2023/03/04 12:52:59;;;;;;;;;;;8.70;99.90;;;;;;5046879;28;1910;-61
2023/03/04 12:55:33;;;;;;;;;;;8.70;99.90;;;;;;5044625;28;1008;-62
2023/03/04 12:58:00;;;;;;;;;;;8.70;99.90;;;;;;5055089;28;901;-61
2023/03/04 13:00:38;;;;;;;;;;;8.70;99.90;;;;;;5051557;28;921;-61
2023/03/04 13:03:10;;;;;;;;;;;8.70;99.90;;;;;;5056871;28;1145;-61
2023/03/04 13:06:01;;;;;;;;;;;8.70;99.90;;;;;;5056941;28;1326;-61
2023/03/04 13:08:50;;;;;;;;;;;8.60;99.90;;;;;;5057304;28;1106;-61
2023/03/04 13:11:25;;;;;;;;;;;8.40;99.90;;;;;;5050515;28;1902;-61
2023/03/04 13:14:02;;;;;;;;;;;8.30;99.90;;;;;;5057255;28;1066;-62
2023/03/04 13:16:34;;;;;;;;;;;8.20;99.90;;;;;;5057324;28;1171;-62
2023/03/04 13:19:00;;;;;;;;;;;8.10;99.90;;;;;;5057242;28;1090;-61
2023/03/04 13:21:27;;;;;;;;;;;8.10;99.90;;;;;;5057102;28;1465;-61
2023/03/04 13:23:54;;;;;;;;;;;8.30;99.90;;;;;;5056859;28;1035;-61
2023/03/04 13:26:22;;;;;;;;;;;8.30;99.90;;;;;;5056699;28;1251;-61
2023/03/04 13:29:24;;;;;;;;;;;8.40;99.90;;;;;;5054380;28;1446;-61
2023/03/04 13:31:59;;;;;;;;;;;8.60;99.90;;;;;;5015379;28;1906;-62
2023/03/04 13:34:45;;;;;;;;;;;8.70;99.90;;;;;;5050800;28;1098;-61
2023/03/04 13:37:28;;;;;;;;;;;8.60;99.90;;;;;;5056941;28;1114;-62
2023/03/04 13:40:13;;;;;;;;;;;8.60;99.90;;;;;;5061053;28;1216;-61
2023/03/04 13:42:41;;;;;;;;;;;8.50;99.90;;;;;;5054015;28;1237;-61
2023/03/04 13:45:27;;;;;;;;;;;8.30;99.90;;;;;;5056702;28;1010;-61
2023/03/04 13:47:53;;;;;;;;;;;8.30;99.90;;;;;;5056273;28;1081;-61
2023/03/04 13:50:21;;;;;;;;;;;8.30;99.90;;;;;;5056814;28;1154;-60
2023/03/04 13:52:47;;;;;;;;;;;8.30;99.90;;;;;;5055611;28;1981;-62
2023/03/04 13:55:43;;;;;;;;;;;8.30;99.90;;;;;;5056567;28;1149;-61
2023/03/04 13:58:14;;;;;;;;;;;8.20;99.90;;;;;;5047372;28;1431;-62
2023/03/04 14:00:46;;;;;;;;;;;8.00;99.90;;;;;;5056431;28;1153;-61
2023/03/04 14:03:13;;;;;;;;;;;8.00;99.90;;;;;;5040946;28;1086;-61
2023/03/04 14:05:40;;;;;;;;;;;8.20;99.90;;;;;;5056274;28;1274;-61
2023/03/04 14:08:16;;;;;;;;;;;8.30;99.90;;;;;;5056581;28;1098;-61
2023/03/04 14:10:42;;;;;;;;;;;8.40;99.90;;;;;;5052486;28;1168;-60
2023/03/04 14:13:10;;;;;;;;;;;8.40;99.90;;;;;;5048108;28;1969;-61
2023/03/04 14:15:37;;;;;;;;;;;8.50;99.90;;;;;;5056422;28;991;-61
2023/03/04 14:18:04;;;;;;;;;;;8.40;99.90;;;;;;5056400;28;1055;-62
2023/03/04 14:20:31;;;;;;;;;;;8.40;99.90;;;;;;5056387;28;1122;-62
2023/03/04 14:22:58;;;;;;;;;;;8.30;99.90;;;;;;5056287;28;1109;-62
2023/03/04 14:25:32;;;;;;;;;;;8.30;99.90;;;;;;5056475;28;1003;-63
2023/03/04 14:28:15;;;;;;;;;;;8.20;99.90;;;;;;5056518;28;1021;-61
2023/03/04 14:30:42;;;;;;;;;;;8.20;99.90;;;;;;5072723;28;1814;-61
2023/03/04 14:33:15;;;;;;;;;;;8.20;99.90;;;;;;5056203;28;1902;-62
2023/03/04 14:35:46;;;;;;;;;;;8.20;99.90;;;;;;5056316;28;1156;-61
2023/03/04 14:38:24;;;;;;;;;;;8.30;99.90;;;;;;5056156;28;1219;-61
2023/03/04 14:40:57;;;;;;;;;;;8.30;99.90;;;;;;5055991;28;944;-61
2023/03/04 14:43:23;;;;;;;;;;;8.30;99.90;;;;;;5055717;28;1113;-61
2023/03/04 14:45:51;;;;;;;;;;;8.30;99.90;;;;;;5055900;28;1079;-61
2023/03/04 14:48:35;;;;;;;;;;;8.20;99.90;;;;;;5055964;28;1114;-62
2023/03/04 14:51:02;;;;;;;;;;;8.00;99.90;;;;;;5050882;28;1126;-61
2023/03/04 14:53:29;;;;;;;;;;;8.00;99.90;;;;;;5055721;28;1973;-61